createdAt,value
2023-04-11T00:04:07.794Z,15.29
2023-04-11T00:09:39.033Z,15.35
2023-04-11T00:15:10.831Z,15.36
2023-04-11T00:20:46.914Z,15.42
2023-04-11T00:26:18.650Z,15.49
2023-04-11T00:31:50.685Z,15.48
2023-04-11T00:37:22.532Z,15.55
2023-04-11T00:42:53.852Z,15.51
2023-04-11T00:48:26.645Z,15.56
2023-04-11T00:53:57.558Z,15.45
2023-04-11T00:59:29.001Z,15.45
2023-04-11T01:05:01.561Z,15.42
2023-04-11T01:10:32.750Z,15.31
2023-04-11T01:16:04.493Z,15.15
2023-04-11T01:21:42.853Z,14.88
2023-04-11T01:27:14.073Z,14.74
2023-04-11T01:32:46.167Z,14.04
2023-04-11T01:38:17.777Z,13.96
2023-04-11T01:43:49.542Z,13.81
2023-04-11T01:49:20.997Z,13.77
2023-04-11T01:54:52.719Z,13.91
2023-04-11T02:00:24.423Z,13.68
2023-04-11T02:05:56.466Z,12.76
2023-04-11T02:11:28.120Z,12.49
2023-04-11T02:16:59.663Z,12.49
2023-04-11T02:22:35.719Z,12.49
2023-04-11T02:28:08.276Z,12.27
2023-04-11T02:33:39.429Z,12.14
2023-04-11T02:39:10.978Z,12.32
2023-04-11T02:44:42.681Z,11.91
2023-04-11T02:50:14.644Z,11.76
2023-04-11T02:55:46.907Z,11.97
2023-04-11T03:01:18.218Z,11.92
2023-04-11T03:06:49.597Z,11.77
2023-04-11T03:12:21.595Z,11.48
2023-04-11T03:17:53.074Z,11.31
2023-04-11T03:23:29.449Z,11.01
2023-04-11T03:29:01.351Z,11.06
2023-04-11T03:34:32.570Z,10.9
2023-04-11T03:40:04.342Z,10.97
2023-04-11T03:45:36.247Z,11.05
2023-04-11T03:51:07.969Z,11.3
2023-04-11T03:56:39.545Z,10.77
2023-04-11T04:02:12.022Z,10.81
2023-04-11T04:07:43.011Z,10.76
2023-04-11T04:13:14.681Z,10.66
2023-04-11T04:18:46.737Z,10.42
2023-04-11T04:24:22.844Z,10.38
2023-04-11T04:29:59.157Z,10.27
2023-04-11T04:35:26.275Z,10.11
2023-04-11T04:40:57.704Z,9.99
2023-04-11T04:46:29.422Z,9.97
2023-04-11T04:52:01.173Z,9.63
2023-04-11T04:57:33.122Z,9.65
2023-04-11T05:03:04.746Z,9.38
2023-04-11T05:08:36.331Z,9.24
2023-04-11T05:14:08.096Z,9.19
2023-04-11T05:19:39.814Z,9.19
2023-04-11T05:25:18.233Z,9.05
2023-04-11T05:30:49.960Z,9.15
2023-04-11T05:36:21.371Z,9.2
2023-04-11T05:41:53.383Z,9.0
2023-04-11T05:47:24.886Z,9.31
2023-04-11T05:52:56.692Z,9.17
2023-04-11T05:58:29.341Z,9.39
2023-04-11T06:04:00.644Z,9.39
2023-04-11T06:09:33.889Z,9.15
2023-04-11T06:15:04.171Z,9.37
2023-04-11T06:20:35.319Z,9.32
2023-04-11T06:26:13.724Z,9.46
2023-04-11T06:31:45.409Z,9.45
2023-04-11T06:37:16.844Z,9.4
2023-04-11T06:42:48.584Z,9.48
2023-04-11T06:48:20.261Z,9.5
2023-04-11T06:53:52.256Z,9.47
2023-04-11T06:59:24.780Z,9.55
2023-04-11T07:04:55.600Z,9.56
2023-04-11T07:10:27.471Z,9.57
2023-04-11T07:15:58.925Z,9.7
2023-04-11T07:21:31.011Z,9.53
2023-04-11T07:27:09.081Z,9.71
2023-04-11T07:32:40.763Z,9.66
2023-04-11T07:38:12.476Z,9.88
2023-04-11T07:43:44.286Z,9.94
2023-04-11T07:49:15.922Z,10.11
2023-04-11T07:54:47.401Z,10.35
2023-04-11T08:00:19.146Z,10.59
2023-04-11T08:05:50.855Z,10.6
2023-04-11T08:11:22.579Z,10.7
2023-04-11T08:16:54.451Z,10.6
2023-04-11T08:22:26.054Z,10.89
2023-04-11T08:28:04.319Z,10.9
2023-04-11T08:33:37.123Z,10.96
2023-04-11T08:39:07.779Z,10.82
2023-04-11T08:44:39.828Z,11.18
2023-04-11T08:50:11.124Z,11.42
2023-04-11T08:55:42.990Z,11.59
2023-04-11T09:01:14.696Z,11.77
2023-04-11T09:06:46.544Z,11.66
2023-04-11T09:12:18.157Z,11.42
2023-04-11T09:17:49.664Z,11.4
2023-04-11T09:23:21.509Z,11.6
2023-04-11T09:28:57.920Z,11.85
2023-04-11T09:34:29.488Z,12.19
2023-04-11T09:40:00.968Z,12.37
2023-04-11T09:45:38.446Z,12.57
2023-04-11T09:51:04.824Z,13.29
2023-04-11T09:56:36.281Z,13.03
2023-04-11T10:02:08.047Z,12.63
2023-04-11T10:07:39.689Z,13.44
2023-04-11T10:13:11.398Z,13.0
2023-04-11T10:18:43.159Z,12.66
2023-04-11T10:24:16.956Z,12.45
2023-04-11T10:29:53.012Z,12.44
2023-04-11T10:35:24.931Z,12.47
2023-04-11T10:40:56.449Z,12.46
2023-04-11T10:46:28.193Z,12.47
2023-04-11T10:52:00.116Z,12.81
2023-04-11T10:57:31.837Z,13.13
2023-04-11T11:03:03.465Z,12.92
2023-04-11T11:08:35.295Z,12.95
2023-04-11T11:14:06.839Z,13.01
2023-04-11T11:19:38.694Z,13.36
2023-04-11T11:25:10.241Z,13.79
2023-04-11T11:30:48.383Z,13.4
2023-04-11T11:36:20.162Z,13.1
2023-04-11T11:41:51.824Z,13.89
2023-04-11T11:47:23.805Z,13.64
2023-04-11T11:52:55.283Z,13.34
2023-04-11T11:58:27.917Z,13.56
2023-04-11T12:03:58.933Z,13.42
2023-04-11T12:09:30.524Z,13.48
2023-04-11T12:15:02.394Z,13.38
2023-04-11T12:20:34.232Z,13.54
2023-04-11T12:26:06.197Z,13.69
2023-04-11T12:31:43.226Z,13.64
2023-04-11T12:37:13.739Z,13.61
2023-04-11T12:42:55.627Z,13.27
2023-04-11T12:48:16.953Z,12.94
2023-04-11T12:53:48.629Z,13.31
2023-04-11T12:59:20.414Z,13.5
2023-04-11T13:04:52.739Z,13.36
2023-04-11T13:10:23.845Z,13.38
2023-04-11T13:15:55.625Z,13.51
2023-04-11T13:21:27.651Z,13.43
2023-04-11T13:26:59.322Z,13.63
2023-04-11T13:32:37.126Z,13.44
2023-04-11T13:38:08.820Z,14.09
2023-04-11T13:43:40.496Z,13.76
2023-04-11T13:49:12.296Z,13.43
2023-04-11T13:54:44.289Z,13.38
2023-04-11T14:00:15.809Z,13.43
2023-04-11T14:05:47.451Z,13.49
2023-04-11T14:11:19.180Z,13.54
2023-04-11T14:16:50.886Z,13.75
2023-04-11T14:22:22.722Z,13.69
2023-04-11T14:27:54.358Z,14.22
2023-04-11T14:33:32.594Z,14.6
2023-04-11T14:39:04.380Z,14.07
2023-04-11T14:44:35.912Z,14.1
2023-04-11T14:50:07.656Z,13.9
2023-04-11T14:55:39.369Z,13.82
2023-04-11T15:01:11.286Z,14.1
2023-04-11T15:06:42.815Z,14.09
2023-04-11T15:12:14.645Z,14.03
2023-04-11T15:17:46.259Z,14.27
2023-04-11T15:23:18.313Z,14.25
2023-04-11T15:28:50.226Z,13.83
2023-04-11T15:34:27.853Z,14.0
2023-04-11T15:39:59.792Z,13.88
2023-04-11T15:45:31.303Z,13.97
2023-04-11T15:51:03.227Z,14.05
2023-04-11T15:56:34.959Z,13.86
2023-04-11T16:02:06.720Z,14.02
2023-04-11T16:07:38.548Z,13.99
2023-04-11T16:13:10.011Z,13.82
2023-04-11T16:18:41.806Z,13.8
2023-04-11T16:24:13.694Z,13.58
2023-04-11T16:29:45.121Z,13.51
2023-04-11T16:35:23.990Z,13.48
2023-04-11T16:40:55.073Z,13.46
2023-04-11T16:46:26.825Z,13.52
2023-04-11T16:51:58.844Z,13.61
2023-04-11T16:57:30.200Z,13.63
2023-04-11T17:03:02.060Z,13.84
2023-04-11T17:08:33.642Z,13.63
2023-04-11T17:14:05.420Z,13.49
2023-04-11T17:19:37.092Z,13.41
2023-04-11T17:25:08.822Z,13.4
2023-04-11T17:30:40.506Z,13.21
2023-04-11T17:36:16.959Z,13.29
2023-04-11T17:41:48.408Z,13.53
2023-04-11T17:47:20.154Z,13.36
2023-04-11T17:52:52.052Z,13.58
2023-04-11T17:58:23.812Z,13.39
2023-04-11T18:03:55.751Z,13.46
2023-04-11T18:09:27.331Z,13.43
2023-04-11T18:14:59.030Z,13.27
2023-04-11T18:20:30.841Z,13.32
2023-04-11T18:26:02.343Z,13.24
2023-04-11T18:31:34.222Z,13.17
2023-04-11T18:37:12.134Z,13.09
2023-04-11T18:42:43.870Z,12.9
2023-04-11T18:48:15.712Z,12.79
2023-04-11T18:53:47.302Z,12.74
2023-04-11T18:59:19.663Z,12.68
2023-04-11T19:04:50.933Z,12.66
2023-04-11T19:10:22.648Z,12.53
2023-04-11T19:15:54.368Z,12.53
2023-04-11T19:21:25.911Z,12.48
2023-04-11T19:26:57.625Z,12.39
2023-04-11T19:32:29.535Z,12.36
2023-04-11T19:38:05.501Z,12.37
2023-04-11T19:43:37.318Z,12.37
2023-04-11T19:49:09.007Z,12.34
2023-04-11T19:54:40.691Z,12.26
2023-04-11T20:00:12.645Z,12.26
2023-04-11T20:05:44.266Z,12.23
2023-04-11T20:11:16.004Z,12.22
2023-04-11T20:16:47.899Z,12.1
2023-04-11T20:22:19.365Z,12.17
2023-04-11T20:27:51.136Z,12.06
2023-04-11T20:33:22.808Z,12.09
2023-04-11T20:38:59.013Z,12.1
2023-04-11T20:44:30.601Z,12.06
2023-04-11T20:50:02.410Z,11.98
2023-04-11T20:55:34.164Z,11.92
2023-04-11T21:01:06.401Z,11.97
2023-04-11T21:06:37.516Z,11.99
2023-04-11T21:12:09.328Z,11.98
2023-04-11T21:17:40.955Z,11.98
2023-04-11T21:23:12.705Z,11.92
2023-04-11T21:28:44.383Z,11.94
2023-04-11T21:34:16.217Z,11.91
2023-04-11T21:39:52.410Z,11.88
2023-04-11T21:45:24.116Z,11.88
2023-04-11T21:50:55.713Z,11.84
2023-04-11T21:56:27.548Z,11.83
2023-04-11T22:01:59.258Z,11.83
2023-04-11T22:07:33.548Z,11.9
2023-04-11T22:13:02.687Z,11.89
2023-04-11T22:18:35.943Z,11.83
2023-04-11T22:24:06.379Z,11.72
2023-04-11T22:29:38.025Z,11.59
2023-04-11T22:35:09.685Z,11.61
2023-04-11T22:40:47.992Z,11.74
2023-04-11T22:46:19.768Z,11.72
2023-04-11T22:51:51.313Z,11.79
2023-04-11T22:57:23.136Z,11.73
2023-04-11T23:02:55.053Z,11.76
2023-04-11T23:08:26.647Z,11.71
2023-04-11T23:13:59.192Z,11.62
2023-04-11T23:19:30.015Z,11.62
2023-04-11T23:25:01.704Z,11.57
2023-04-11T23:30:33.754Z,11.33
2023-04-11T23:36:05.550Z,11.49
2023-04-11T23:41:43.546Z,11.52
2023-04-11T23:47:15.140Z,11.68
2023-04-11T23:52:46.791Z,11.55
2023-04-11T23:58:18.532Z,11.32
